Marianna, FL (32448)

7:51 PM CST on March 06, 2015 (GMT -0600)
Cypress | Change Station
CLOSE
Current Station
Personal Weather Station
Location: Marianna, FL
Elevation: 138 ft
Nearby Weather Stations
Active Advisory: Frost Advisory

Elev 138 ft 30.67 °N, 85.07 °W | Updated 4 seconds ago

Mostly Cloudy
Mostly Cloudy
43.4 °F
Feels Like 43 °F
N
1.4
Wind Variable Wind from NNE
Gusts 2.0 mph

Today
High -- | Low -- °F
--% Chance of Precip.
Yesterday
High -- | Low -- °F
Precip. -- in
6:01 AM 5:42 PM
Full, 98% visible
Pressure 30.39 in
Visibility 10.0 miles
Clouds Clear
Windchill 43 °F
Dew Point 40 °F
Humidity 91%
Rainfall in
Snow Depth Not available.
UV 0 out of 12
Pollen 9.20 out of 12
Air Quality Not available.
Flu Activity Not available.
METAR KMAI 070053Z AUTO 01004KT 10SM CLR 07/05 A3039 RMK AO2 SLP291 T00720050

More Conditions Fewer Conditions

Pressure 30.39 in
Visibility 10.0 miles
Clouds Clear
Windchill 43 °F
Dew Point 40 °F
Humidity 91%
Rainfall in
Snow Depth Not available.
UV 0 out of 12
Pollen 9.20 out of 12
Air Quality Not available.
Flu Activity Not available.
METAR KMAI 070053Z AUTO 01004KT 10SM CLR 07/05 A3039 RMK AO2 SLP291 T00720050

More Conditions Fewer Conditions

10-Day Weather Forecast

Almanac

Astronomy

Mar. 06, 2015 Rise Set
Actual Time
Civil Twilight
Nautical Twilight
Astronomical Twilight
Moon
Length of Visible Light
Length of Day
Tomorrow will be .
, % of the Moon is Illuminated

Today's Extremes

State Highs State Lows

Community

WunderPhotos

Upload Photos

1,803,494 photos uploaded!

WunderBlogs® & News

Nearby

Air Quality

  Air Quality AQ Index Pollutant
Not available.

Snow Depth

Station Depth Elevation

Earthquake Activity

City Distance Mag. Time & Date
Minimum magnitude displayed is 2.5.

Coastal Water Temperatures

Place Temperature

Nearby Weather Stations

Frost Advisory
Statement as of 1:21 PM CST on March 06, 2015

... Frost advisory in effect from 5 am EST /4 am CST/ to 9 am EST
/8 am CST/ Saturday...

The National Weather Service in Tallahassee has issued a frost
advisory... which is in effect from 5 am EST /4 am CST/ to 9 am
EST /8 am CST/ Saturday.

* Temperature... 32 to 36 degrees across the northwest Panhandle
and southern Georgia.

Precautionary/preparedness actions...

A frost advisory means that frost is possible. Sensitive outdoor
plants may be killed if left uncovered.